createdAt,value
2019-02-23T00:01:26.853Z,62.31
2019-02-23T00:03:56.628Z,62.38
2019-02-23T00:06:29.748Z,62.56
2019-02-23T00:08:52.891Z,62.77
2019-02-23T00:11:20.338Z,62.91
2019-02-23T00:13:53.143Z,63.39
2019-02-23T00:16:24.482Z,63.42
2019-02-23T00:18:53.344Z,63.53
2019-02-23T00:21:23.405Z,63.37
2019-02-23T00:23:50.694Z,63.32
2019-02-23T00:26:21.964Z,63.36
2019-02-23T00:28:50.924Z,63.43
2019-02-23T00:31:18.021Z,63.49
2019-02-23T00:33:48.059Z,63.45
2019-02-23T00:36:15.106Z,63.56
2019-02-23T00:38:42.180Z,63.74
2019-02-23T00:41:09.230Z,63.85
2019-02-23T00:43:36.283Z,63.91
2019-02-23T00:46:03.350Z,63.91
2019-02-23T00:48:30.414Z,64.02
2019-02-23T00:50:57.483Z,64.21
2019-02-23T00:53:24.635Z,64.34
2019-02-23T00:55:51.755Z,64.21
2019-02-23T00:58:18.889Z,64.12
2019-02-23T01:00:45.900Z,64.19
2019-02-23T01:03:12.962Z,64.35
2019-02-23T01:05:40.020Z,64.34
2019-02-23T01:08:07.079Z,64.40
2019-02-23T01:10:34.196Z,64.48
2019-02-23T01:13:01.263Z,64.49
2019-02-23T01:15:28.346Z,64.55
2019-02-23T01:17:55.427Z,64.93
2019-02-23T01:20:22.590Z,64.94
2019-02-23T01:22:52.700Z,65.23
2019-02-23T01:25:19.778Z,65.38
2019-02-23T01:27:46.872Z,65.38
2019-02-23T01:30:13.934Z,65.59
2019-02-23T01:35:04.582Z,65.95
2019-02-23T01:37:31.645Z,66.07
2019-02-23T01:39:58.715Z,66.03
2019-02-23T01:42:25.807Z,66.33
2019-02-23T01:44:52.856Z,66.30
2019-02-23T01:47:20.009Z,66.65
2019-02-23T01:49:47.073Z,66.85
2019-02-23T01:52:14.148Z,67.04
2019-02-23T01:54:41.243Z,67.30
2019-02-23T01:57:10.362Z,67.20
2019-02-23T01:59:37.582Z,67.35
2019-02-23T02:02:04.656Z,67.76
2019-02-23T02:04:31.713Z,67.72
2019-02-23T02:06:58.778Z,67.78
2019-02-23T02:09:25.839Z,67.74
2019-02-23T02:11:52.899Z,67.70
2019-02-23T02:14:21.877Z,67.66
2019-02-23T02:16:49.002Z,67.64
2019-02-23T02:19:16.098Z,68.06
2019-02-23T02:21:43.435Z,68.14
2019-02-23T02:24:10.497Z,68.29
2019-02-23T02:26:37.567Z,69.19
2019-02-23T02:29:04.630Z,69.64
2019-02-23T02:31:31.730Z,69.79
2019-02-23T02:34:09.762Z,69.94
2019-02-23T02:36:36.832Z,70.17
2019-02-23T02:39:10.088Z,70.54
2019-02-23T02:41:37.164Z,70.98
2019-02-23T02:44:04.230Z,70.95
2019-02-23T02:46:31.291Z,71.26
2019-02-23T02:48:58.357Z,71.66
2019-02-23T02:51:25.419Z,72.25
2019-02-23T02:53:52.479Z,72.04
2019-02-23T02:56:19.536Z,72.39
2019-02-23T02:58:46.596Z,72.56
2019-02-23T03:01:13.662Z,72.65
2019-02-23T03:03:40.730Z,72.64
2019-02-23T03:06:07.778Z,72.89
2019-02-23T03:08:34.841Z,73.18
2019-02-23T03:11:01.931Z,73.37
2019-02-23T03:13:29.000Z,73.61
2019-02-23T03:15:56.052Z,73.30
2019-02-23T03:18:23.129Z,73.20
2019-02-23T03:20:50.186Z,73.18
2019-02-23T03:23:17.242Z,73.45
2019-02-23T03:25:44.307Z,73.59
2019-02-23T03:28:13.391Z,73.46
2019-02-23T03:30:40.456Z,73.71
2019-02-23T03:33:07.511Z,73.93
2019-02-23T03:35:34.577Z,74.28
2019-02-23T03:38:01.645Z,74.39
2019-02-23T03:40:28.700Z,74.39
2019-02-23T03:42:55.762Z,74.27
2019-02-23T03:45:22.816Z,74.37
2019-02-23T03:47:49.867Z,74.46
2019-02-23T03:50:16.929Z,74.64
2019-02-23T03:52:43.993Z,75.14
2019-02-23T03:55:11.179Z,75.23
2019-02-23T03:57:38.236Z,75.52
2019-02-23T04:00:06.501Z,76.07
2019-02-23T04:02:33.556Z,76.75
2019-02-23T04:05:00.624Z,76.55
2019-02-23T04:07:27.683Z,76.98
2019-02-23T04:09:54.736Z,77.39
2019-02-23T04:12:21.806Z,77.97
2019-02-23T04:14:48.870Z,78.20
2019-02-23T04:17:15.943Z,78.30
2019-02-23T04:19:43.003Z,78.68
2019-02-23T04:22:10.064Z,78.83
2019-02-23T04:24:37.118Z,78.83
2019-02-23T04:27:04.180Z,78.76
2019-02-23T04:29:31.236Z,79.26
2019-02-23T04:31:58.295Z,79.53
2019-02-23T04:34:25.359Z,79.32
2019-02-23T04:36:52.420Z,79.44
2019-02-23T04:39:19.513Z,79.50
2019-02-23T04:41:46.568Z,79.62
2019-02-23T04:44:13.632Z,79.76
2019-02-23T04:46:40.687Z,79.61
2019-02-23T04:49:07.759Z,79.51
2019-02-23T04:51:34.849Z,79.92
2019-02-23T04:54:01.908Z,79.95
2019-02-23T04:56:29.016Z,79.86
2019-02-23T04:58:56.111Z,79.75
2019-02-23T05:01:23.174Z,79.97
2019-02-23T05:03:50.232Z,80.15
2019-02-23T05:06:17.300Z,80.12
2019-02-23T05:08:44.531Z,80.15
2019-02-23T05:11:11.650Z,80.39
2019-02-23T05:13:38.677Z,80.75
2019-02-23T05:16:05.736Z,80.73
2019-02-23T05:18:32.789Z,80.71
2019-02-23T05:20:59.849Z,80.69
2019-02-23T05:23:26.908Z,80.88
2019-02-23T05:25:53.966Z,81.01
2019-02-23T05:28:21.020Z,81.35
2019-02-23T05:30:48.083Z,81.26
2019-02-23T05:33:15.205Z,81.16
2019-02-23T05:35:42.258Z,81.31
2019-02-23T05:38:09.321Z,81.51
2019-02-23T05:40:36.382Z,81.64
2019-02-23T05:43:03.459Z,81.77
2019-02-23T05:45:30.508Z,81.78
2019-02-23T05:47:57.585Z,81.74
2019-02-23T05:50:24.654Z,81.81
2019-02-23T05:52:51.733Z,81.84
2019-02-23T05:55:18.821Z,81.83
2019-02-23T05:57:45.911Z,81.85
2019-02-23T06:00:13.304Z,81.97
2019-02-23T06:02:40.376Z,82.10
2019-02-23T06:05:07.921Z,82.28
2019-02-23T06:07:34.972Z,82.58
2019-02-23T06:10:02.452Z,82.56
2019-02-23T06:12:29.597Z,82.50
2019-02-23T06:14:56.652Z,82.55
2019-02-23T06:17:23.719Z,82.54
2019-02-23T06:19:50.783Z,82.53
2019-02-23T06:22:17.877Z,82.60
2019-02-23T06:24:44.971Z,82.96
2019-02-23T06:27:12.077Z,83.03
2019-02-23T06:29:39.181Z,82.88
2019-02-23T06:32:06.241Z,82.88
2019-02-23T06:34:33.299Z,83.02
2019-02-23T06:37:00.395Z,83.12
2019-02-23T06:39:27.497Z,83.13
2019-02-23T06:41:54.606Z,83.32
2019-02-23T06:44:21.665Z,83.60
2019-02-23T06:46:48.759Z,83.65
2019-02-23T06:49:15.817Z,83.64
2019-02-23T06:51:42.922Z,83.67
2019-02-23T06:54:10.046Z,83.95
2019-02-23T06:56:37.110Z,83.90
2019-02-23T06:59:04.221Z,83.98
2019-02-23T07:01:31.288Z,83.86
2019-02-23T07:03:58.404Z,83.89
2019-02-23T07:06:25.491Z,83.82
2019-02-23T07:08:52.579Z,83.78
2019-02-23T07:11:19.666Z,83.94
2019-02-23T07:13:46.725Z,83.79
2019-02-23T07:16:13.770Z,83.92
2019-02-23T07:18:40.847Z,83.78
2019-02-23T07:21:07.900Z,83.67
2019-02-23T07:23:34.955Z,83.51
2019-02-23T07:26:02.035Z,83.43
2019-02-23T07:28:29.096Z,83.39
2019-02-23T07:30:56.151Z,83.33
2019-02-23T07:33:32.377Z,83.25
2019-02-23T07:35:52.282Z,83.14
2019-02-23T07:38:19.344Z,83.05
2019-02-23T07:40:46.403Z,82.93
2019-02-23T07:43:13.454Z,82.87
2019-02-23T07:45:40.560Z,82.79
2019-02-23T07:48:07.661Z,82.70
2019-02-23T07:50:34.727Z,82.59
2019-02-23T07:53:01.789Z,82.48
2019-02-23T07:55:28.888Z,82.40
2019-02-23T07:57:55.951Z,82.33
2019-02-23T08:00:23.017Z,82.27
2019-02-23T08:02:51.197Z,82.22
2019-02-23T08:05:18.279Z,82.17
2019-02-23T08:07:45.519Z,82.11
2019-02-23T08:10:12.623Z,82.02
2019-02-23T08:12:39.741Z,81.97
2019-02-23T08:15:07.338Z,81.95
2019-02-23T08:17:34.562Z,81.90
2019-02-23T08:20:01.803Z,81.84
2019-02-23T08:22:37.059Z,81.80
2019-02-23T08:24:59.249Z,81.73
2019-02-23T08:27:26.535Z,81.72
2019-02-23T08:29:55.704Z,81.63
2019-02-23T08:32:22.798Z,81.60
2019-02-23T08:34:49.859Z,81.59
2019-02-23T08:37:17.315Z,81.54
2019-02-23T08:39:44.394Z,81.55
2019-02-23T08:42:11.559Z,81.59
2019-02-23T08:44:39.981Z,81.56
2019-02-23T08:47:07.080Z,81.58
2019-02-23T08:49:34.140Z,81.54
2019-02-23T08:52:01.224Z,81.54
2019-02-23T08:54:28.320Z,81.54
2019-02-23T08:56:55.479Z,81.47
2019-02-23T08:59:22.571Z,81.47
2019-02-23T09:01:49.637Z,81.34
2019-02-23T09:04:16.724Z,81.34
2019-02-23T09:06:43.807Z,81.29
2019-02-23T09:09:10.885Z,81.25
2019-02-23T09:11:37.965Z,81.28
2019-02-23T09:14:05.034Z,81.20
2019-02-23T09:16:32.171Z,81.21
2019-02-23T09:18:59.218Z,81.25
2019-02-23T09:21:26.346Z,81.26
2019-02-23T09:23:53.424Z,81.23
2019-02-23T09:26:20.489Z,81.27
2019-02-23T09:28:47.552Z,81.22
2019-02-23T09:31:14.652Z,81.15
2019-02-23T09:33:41.705Z,81.14
2019-02-23T09:36:08.859Z,81.16
2019-02-23T09:38:35.941Z,81.08
2019-02-23T09:41:03.010Z,81.07
2019-02-23T09:43:30.124Z,81.09
2019-02-23T09:45:57.187Z,81.05
2019-02-23T09:48:24.244Z,80.94
2019-02-23T09:50:51.321Z,80.95
2019-02-23T09:53:18.397Z,80.89
2019-02-23T09:55:45.462Z,80.80
2019-02-23T09:58:12.539Z,80.84
2019-02-23T10:00:39.619Z,80.90
2019-02-23T10:03:06.696Z,80.84
2019-02-23T10:05:33.762Z,80.72
2019-02-23T10:08:00.814Z,80.57
2019-02-23T10:10:27.911Z,80.47
2019-02-23T10:12:54.966Z,80.45
2019-02-23T10:15:22.013Z,80.45
2019-02-23T10:17:49.096Z,80.42
2019-02-23T10:20:16.178Z,80.33
2019-02-23T10:22:43.246Z,80.28
2019-02-23T10:25:10.315Z,80.28
2019-02-23T10:27:37.454Z,80.31
2019-02-23T10:30:05.162Z,80.34
2019-02-23T10:32:32.261Z,80.21
2019-02-23T10:34:59.383Z,80.08
2019-02-23T10:37:26.422Z,80.06
2019-02-23T10:39:53.500Z,80.03
2019-02-23T10:42:20.573Z,80.12
2019-02-23T10:44:47.676Z,80.18
2019-02-23T10:47:14.819Z,80.18
2019-02-23T10:49:41.962Z,80.13
2019-02-23T10:52:09.059Z,80.07
2019-02-23T10:54:36.110Z,80.00
2019-02-23T10:57:03.393Z,80.07
2019-02-23T10:59:30.507Z,80.20
2019-02-23T11:01:57.595Z,80.28
2019-02-23T11:04:24.672Z,80.22
2019-02-23T11:06:51.737Z,80.29
2019-02-23T11:09:27.224Z,80.27
2019-02-23T11:11:54.337Z,80.31
2019-02-23T11:14:21.404Z,80.26
2019-02-23T11:16:48.737Z,80.18
2019-02-23T11:19:15.744Z,80.07
2019-02-23T11:21:42.856Z,80.07
2019-02-23T11:24:10.052Z,80.10
2019-02-23T11:26:38.258Z,80.09
2019-02-23T11:29:05.406Z,80.16
2019-02-23T11:31:32.479Z,80.27
2019-02-23T11:33:59.733Z,80.31
2019-02-23T11:36:26.816Z,80.26
2019-02-23T11:38:56.905Z,80.26
2019-02-23T11:41:24.068Z,80.23
2019-02-23T11:43:56.603Z,80.18
2019-02-23T11:46:25.885Z,80.24
2019-02-23T11:48:53.116Z,80.28
2019-02-23T11:51:27.228Z,80.32
2019-02-23T11:54:02.873Z,80.31
2019-02-23T11:56:32.643Z,80.42
2019-02-23T11:59:00.536Z,80.38
2019-02-23T12:01:35.720Z,80.41
2019-02-23T12:04:10.080Z,80.38
2019-02-23T12:06:42.521Z,80.29
2019-02-23T12:09:12.417Z,80.24
2019-02-23T12:11:46.156Z,80.24
2019-02-23T12:14:18.326Z,80.18
2019-02-23T12:16:45.480Z,80.20
2019-02-23T12:19:18.317Z,80.04
2019-02-23T12:21:54.981Z,79.82
2019-02-23T12:24:24.849Z,79.84
2019-02-23T12:26:53.805Z,79.86
2019-02-23T12:29:20.871Z,79.94
2019-02-23T12:31:47.932Z,79.89
2019-02-23T12:34:14.980Z,79.86
2019-02-23T12:36:42.117Z,79.72
2019-02-23T12:39:09.147Z,79.68
2019-02-23T12:41:38.943Z,79.69
2019-02-23T12:44:06.029Z,79.67
2019-02-23T12:46:36.638Z,79.63
2019-02-23T12:49:08.460Z,79.63
2019-02-23T12:51:38.655Z,79.51
2019-02-23T12:54:17.006Z,79.38
2019-02-23T12:56:48.607Z,79.26
2019-02-23T12:59:18.636Z,79.21
2019-02-23T13:01:54.162Z,79.29
2019-02-23T13:04:29.956Z,79.30
2019-02-23T13:07:02.210Z,79.21
2019-02-23T13:09:36.449Z,79.12
2019-02-23T13:12:47.262Z,79.16
2019-02-23T13:15:28.496Z,79.18
2019-02-23T13:18:33.026Z,79.20
2019-02-23T13:21:35.602Z,79.27
2019-02-23T13:24:30.352Z,79.26
2019-02-23T13:27:24.682Z,79.28
2019-02-23T13:30:23.972Z,79.25
2019-02-23T13:33:22.105Z,79.34
2019-02-23T13:36:07.194Z,79.35
2019-02-23T13:38:55.065Z,79.31
2019-02-23T13:42:08.625Z,79.22
2019-02-23T13:45:17.198Z,79.20
2019-02-23T13:48:38.165Z,79.24
2019-02-23T13:51:46.350Z,79.25
2019-02-23T13:54:47.728Z,79.35
2019-02-23T13:58:02.715Z,79.43
2019-02-23T14:01:26.430Z,79.51
2019-02-23T14:04:29.000Z,79.44
2019-02-23T14:07:34.233Z,79.49
2019-02-23T14:10:47.384Z,79.49
2019-02-23T14:13:58.205Z,79.49
2019-02-23T14:17:01.683Z,79.44
2019-02-23T14:20:05.012Z,79.44
2019-02-23T14:22:59.439Z,79.35
2019-02-23T14:26:07.559Z,79.36
2019-02-23T14:29:25.399Z,79.38
2019-02-23T14:32:25.452Z,79.36
2019-02-23T14:35:24.521Z,79.31
2019-02-23T14:38:42.247Z,79.34
2019-02-23T14:41:45.072Z,79.48
2019-02-23T14:44:58.897Z,79.51
2019-02-23T14:47:55.510Z,79.52
2019-02-23T14:50:41.613Z,79.50
2019-02-23T14:53:56.718Z,79.50
2019-02-23T14:57:01.801Z,79.48
2019-02-23T14:59:59.558Z,79.44
2019-02-23T15:03:26.736Z,79.41
2019-02-23T15:06:28.485Z,79.40
2019-02-23T15:09:39.116Z,79.26
2019-02-23T15:12:27.848Z,79.26
2019-02-23T15:15:42.409Z,79.29
2019-02-23T15:18:54.286Z,79.18
2019-02-23T15:21:53.111Z,79.16
2019-02-23T15:24:53.018Z,79.16
2019-02-23T15:27:57.141Z,79.20
2019-02-23T15:30:51.657Z,79.17
2019-02-23T15:34:07.407Z,79.15
2019-02-23T15:37:00.955Z,79.13
2019-02-23T15:40:30.725Z,79.08
2019-02-23T15:43:25.461Z,79.11
2019-02-23T15:46:19.574Z,79.15
2019-02-23T15:49:26.833Z,79.16
2019-02-23T15:51:58.518Z,79.08
2019-02-23T15:54:34.170Z,78.96
2019-02-23T15:57:03.750Z,78.97
2019-02-23T15:59:31.000Z,78.94
2019-02-23T16:01:58.132Z,78.94
2019-02-23T16:04:31.228Z,78.93
2019-02-23T16:07:01.091Z,78.98
2019-02-23T16:09:28.547Z,78.97
2019-02-23T16:11:55.857Z,79.04
2019-02-23T16:14:25.136Z,79.02
2019-02-23T16:16:53.851Z,79.04
2019-02-23T16:19:23.420Z,79.05
2019-02-23T16:25:21.850Z,79.24
2019-02-23T16:27:51.487Z,79.17
2019-02-23T16:30:19.098Z,79.22
2019-02-23T16:33:03.089Z,79.23
2019-02-23T16:35:42.092Z,79.21
2019-02-23T16:38:10.339Z,79.09
2019-02-23T16:40:38.179Z,79.06
2019-02-23T16:43:05.333Z,79.07
2019-02-23T16:45:35.171Z,79.15
2019-02-23T16:48:02.391Z,79.24
2019-02-23T16:50:29.686Z,79.34
2019-02-23T16:52:59.947Z,79.44
2019-02-23T16:55:28.220Z,79.52
2019-02-23T16:57:57.578Z,79.48
2019-02-23T17:00:24.618Z,79.57
2019-02-23T17:02:51.688Z,79.65
2019-02-23T17:05:18.755Z,79.65
2019-02-23T17:07:45.827Z,79.44
2019-02-23T17:10:12.912Z,79.69
2019-02-23T17:12:39.987Z,79.48
2019-02-23T17:15:10.372Z,79.27
2019-02-23T17:17:36.181Z,79.18
2019-02-23T17:20:03.435Z,79.37
2019-02-23T17:22:30.483Z,79.20
2019-02-23T17:24:57.555Z,79.25
2019-02-23T17:27:35.917Z,79.44
2019-02-23T17:29:53.663Z,79.69
2019-02-23T17:32:20.750Z,79.46
2019-02-23T17:34:47.999Z,79.29
2019-02-23T17:37:15.095Z,79.29
2019-02-23T17:39:42.185Z,79.42
2019-02-23T17:42:09.264Z,79.53
2019-02-23T17:44:36.342Z,79.69
2019-02-23T17:47:03.396Z,79.95
2019-02-23T17:49:30.471Z,79.74
2019-02-23T17:51:57.574Z,79.69
2019-02-23T17:54:24.626Z,79.72
2019-02-23T17:56:51.678Z,79.76
2019-02-23T17:59:18.771Z,79.78
2019-02-23T18:01:46.056Z,79.88
2019-02-23T18:04:13.140Z,79.90
2019-02-23T18:06:40.285Z,80.00
2019-02-23T18:09:07.373Z,79.99
2019-02-23T18:11:34.608Z,80.03
2019-02-23T18:14:02.101Z,80.06
2019-02-23T18:16:29.610Z,80.01
2019-02-23T18:18:57.602Z,80.01
2019-02-23T18:21:24.796Z,79.99
2019-02-23T18:23:51.885Z,80.08
2019-02-23T18:26:21.151Z,79.92
2019-02-23T18:28:48.074Z,79.85
2019-02-23T18:31:15.137Z,79.98
2019-02-23T18:33:42.198Z,80.07
2019-02-23T18:36:09.266Z,80.22
2019-02-23T18:38:36.326Z,80.30
2019-02-23T18:41:03.412Z,80.33
2019-02-23T18:43:30.458Z,80.40
2019-02-23T18:45:57.626Z,80.53
2019-02-23T18:48:24.697Z,80.55
2019-02-23T18:50:51.804Z,80.59
2019-02-23T18:53:18.908Z,80.66
2019-02-23T18:55:45.993Z,80.72
2019-02-23T18:58:13.053Z,80.76
2019-02-23T19:00:40.119Z,80.66
2019-02-23T19:03:07.204Z,80.55
2019-02-23T19:05:34.290Z,80.65
2019-02-23T19:08:01.433Z,80.61
2019-02-23T19:10:28.612Z,80.67
2019-02-23T19:12:55.671Z,80.72
2019-02-23T19:15:23.837Z,80.77
2019-02-23T19:17:50.904Z,80.81
2019-02-23T19:20:18.003Z,80.85
2019-02-23T19:22:45.086Z,80.96
2019-02-23T19:25:12.159Z,80.99
2019-02-23T19:27:39.260Z,80.97
2019-02-23T19:30:08.116Z,81.05
2019-02-23T19:32:35.186Z,81.04
2019-02-23T19:35:02.275Z,80.96
2019-02-23T19:37:29.331Z,80.96
2019-02-23T19:39:56.383Z,80.95
2019-02-23T19:42:23.489Z,80.98
2019-02-23T19:44:51.253Z,81.01
2019-02-23T19:47:22.071Z,81.05
2019-02-23T19:49:51.441Z,81.15
2019-02-23T19:52:18.500Z,81.28
2019-02-23T19:54:45.646Z,81.40
2019-02-23T19:57:12.705Z,81.58
2019-02-23T19:59:39.806Z,81.65
2019-02-23T20:02:09.926Z,81.72
2019-02-23T20:04:37.218Z,81.76
2019-02-23T20:07:07.430Z,81.82
2019-02-23T20:09:34.580Z,81.93
2019-02-23T20:12:05.040Z,82.00
2019-02-23T20:14:32.259Z,82.01
2019-02-23T20:17:06.455Z,82.11
2019-02-23T20:19:33.703Z,82.22
2019-02-23T20:22:08.151Z,82.32
2019-02-23T20:24:37.292Z,82.35
2019-02-23T20:27:08.613Z,82.33
2019-02-23T20:29:37.458Z,82.38
2019-02-23T20:32:04.662Z,82.46
2019-02-23T20:34:31.858Z,82.59
2019-02-23T20:37:03.568Z,82.65
2019-02-23T20:39:28.225Z,82.80
2019-02-23T20:41:55.347Z,82.86
2019-02-23T20:44:28.933Z,82.90
2019-02-23T20:46:58.367Z,82.92
2019-02-23T20:49:31.216Z,82.94
2019-02-23T20:51:59.776Z,82.98
2019-02-23T20:54:36.553Z,83.07
2019-02-23T20:57:13.668Z,83.13
2019-02-23T20:59:37.945Z,83.09
2019-02-23T21:02:12.765Z,83.13
2019-02-23T21:04:40.794Z,83.18
2019-02-23T21:07:08.045Z,83.24
2019-02-23T21:09:37.480Z,83.26
2019-02-23T21:12:10.229Z,83.30
2019-02-23T21:14:44.050Z,83.37
2019-02-23T21:17:13.652Z,83.35
2019-02-23T21:19:43.592Z,83.40
2019-02-23T21:22:15.243Z,83.49
2019-02-23T21:24:47.379Z,83.51
2019-02-23T21:27:21.915Z,83.59
2019-02-23T21:29:49.051Z,83.60
2019-02-23T21:32:16.132Z,83.61
2019-02-23T21:34:43.209Z,83.59
2019-02-23T21:37:10.269Z,83.63
2019-02-23T21:39:37.388Z,83.62
2019-02-23T21:42:04.472Z,83.62
2019-02-23T21:44:31.573Z,83.71
2019-02-23T21:46:58.870Z,83.75
2019-02-23T21:49:25.942Z,83.85
2019-02-23T21:51:53.059Z,83.89
2019-02-23T21:54:20.157Z,83.92
2019-02-23T21:56:47.225Z,83.93
2019-02-23T21:59:14.366Z,83.97
2019-02-23T22:01:41.521Z,83.92
2019-02-23T22:04:08.618Z,83.89
2019-02-23T22:06:35.793Z,83.87
2019-02-23T22:09:03.881Z,83.84
2019-02-23T22:11:30.948Z,83.83
2019-02-23T22:13:58.015Z,83.86
2019-02-23T22:16:25.109Z,83.94
2019-02-23T22:18:52.170Z,84.04
2019-02-23T22:21:19.258Z,84.06
2019-02-23T22:23:46.407Z,84.07
2019-02-23T22:26:13.497Z,84.13
2019-02-23T22:28:40.579Z,84.23
2019-02-23T22:31:07.647Z,84.24
2019-02-23T22:33:34.672Z,84.24
2019-02-23T22:36:01.767Z,84.29
2019-02-23T22:38:28.840Z,84.35
2019-02-23T22:40:55.899Z,84.38
2019-02-23T22:43:22.975Z,84.38
2019-02-23T22:45:50.055Z,84.42
2019-02-23T22:48:17.360Z,84.40
2019-02-23T22:50:44.440Z,84.41
2019-02-23T22:53:11.492Z,84.43
2019-02-23T22:55:38.556Z,84.44
2019-02-23T22:58:05.663Z,84.38
2019-02-23T23:01:07.614Z,84.28
2019-02-23T23:03:43.804Z,84.23
2019-02-23T23:06:12.399Z,84.20
2019-02-23T23:08:41.035Z,84.19
2019-02-23T23:11:08.544Z,84.28
2019-02-23T23:13:45.844Z,84.39
2019-02-23T23:16:15.778Z,84.40
2019-02-23T23:18:43.099Z,84.41
2019-02-23T23:21:13.854Z,84.46
2019-02-23T23:23:42.005Z,84.48
2019-02-23T23:26:11.647Z,84.50
2019-02-23T23:28:41.785Z,84.53
2019-02-23T23:31:11.505Z,84.56
2019-02-23T23:33:38.697Z,84.57
2019-02-23T23:36:05.935Z,84.63
2019-02-23T23:38:36.303Z,84.75
2019-02-23T23:41:06.063Z,84.77
2019-02-23T23:43:35.577Z,84.80
2019-02-23T23:46:02.720Z,84.88
2019-02-23T23:48:31.698Z,84.98
2019-02-23T23:51:02.512Z,85.06
2019-02-23T23:53:29.674Z,85.20
2019-02-23T23:55:56.865Z,85.25
2019-02-23T23:58:26.263Z,85.34
